createdAt,value
2018-12-08T00:00:37.695Z,94630.00
2018-12-08T00:03:07.201Z,94658.00
2018-12-08T00:05:36.448Z,94651.00
2018-12-08T00:08:05.764Z,94658.00
2018-12-08T00:10:34.902Z,94668.00
2018-12-08T00:13:03.978Z,94667.00
2018-12-08T00:15:33.198Z,94669.00
2018-12-08T00:18:02.360Z,94695.00
2018-12-08T00:20:31.559Z,94700.00
2018-12-08T00:23:01.720Z,94685.00
2018-12-08T00:25:30.918Z,94704.00
2018-12-08T00:28:00.193Z,94727.00
2018-12-08T00:30:46.543Z,94738.00
2018-12-08T00:33:15.716Z,94721.00
2018-12-08T00:35:44.928Z,94718.00
2018-12-08T00:38:14.048Z,94720.00
2018-12-08T00:40:43.237Z,94737.00
2018-12-08T00:43:12.294Z,94753.00
2018-12-08T00:45:41.449Z,94776.00
2018-12-08T00:50:48.844Z,94756.00
2018-12-08T00:53:18.192Z,94792.00
2018-12-08T00:55:47.469Z,94790.00
2018-12-08T00:58:17.679Z,94791.00
2018-12-08T01:00:46.904Z,94811.00
2018-12-08T01:05:55.354Z,94795.00
2018-12-08T01:08:24.859Z,94830.00
2018-12-08T01:10:53.977Z,94814.00
2018-12-08T01:13:23.076Z,94838.00
2018-12-08T01:15:52.209Z,94852.00
2018-12-08T01:21:00.726Z,94878.00
2018-12-08T01:23:29.918Z,94879.00
2018-12-08T01:25:59.029Z,94896.00
2018-12-08T01:28:28.153Z,94889.00
2018-12-08T01:30:57.352Z,94908.00
2018-12-08T01:33:26.504Z,94877.00
2018-12-08T01:35:55.684Z,94890.00
2018-12-08T01:38:24.840Z,94884.00
2018-12-08T01:40:54.064Z,94901.00
2018-12-08T01:43:23.215Z,94918.00
2018-12-08T01:45:52.426Z,94907.00
2018-12-08T01:48:21.584Z,94919.00
2018-12-08T01:53:31.342Z,94952.00
2018-12-08T01:56:00.484Z,94947.00
2018-12-08T01:58:30.991Z,94931.00
2018-12-08T02:01:00.180Z,94935.00
2018-12-08T02:03:29.282Z,94935.00
2018-12-08T02:05:58.362Z,94941.00
2018-12-08T02:08:27.769Z,94930.00
2018-12-08T02:10:56.953Z,94942.00
2018-12-08T02:13:26.052Z,94947.00
2018-12-08T02:15:55.275Z,94962.00
2018-12-08T02:18:24.408Z,94937.00
2018-12-08T02:20:53.468Z,94952.00
2018-12-08T02:23:25.669Z,94958.00
2018-12-08T02:25:54.866Z,94967.00
2018-12-08T02:28:24.037Z,94952.00
2018-12-08T02:30:54.217Z,94965.00
2018-12-08T02:33:23.328Z,94988.00
2018-12-08T02:35:52.632Z,94976.00
2018-12-08T02:38:21.720Z,94989.00
2018-12-08T02:40:50.860Z,94998.00
2018-12-08T02:43:20.054Z,94987.00
2018-12-08T02:45:49.209Z,95015.00
2018-12-08T02:48:18.364Z,95004.00
2018-12-08T02:50:47.467Z,94979.00
2018-12-08T02:55:54.849Z,95019.00
2018-12-08T02:58:24.058Z,95004.00
2018-12-08T03:00:53.258Z,95005.00
2018-12-08T03:03:22.356Z,95024.00
2018-12-08T03:05:51.493Z,95015.00
2018-12-08T03:08:20.552Z,95020.00
2018-12-08T03:10:49.579Z,95028.00
2018-12-08T03:13:18.688Z,95019.00
2018-12-08T03:15:49.659Z,95026.00
2018-12-08T03:20:57.834Z,95045.00
2018-12-08T03:23:27.071Z,95032.00
2018-12-08T03:25:56.222Z,95037.00
2018-12-08T03:31:04.617Z,95059.00
2018-12-08T03:33:33.708Z,95043.00
2018-12-08T03:36:02.787Z,95047.00
2018-12-08T03:38:31.908Z,95053.00
2018-12-08T03:41:01.136Z,95068.00
2018-12-08T03:46:08.884Z,95054.00
2018-12-08T03:48:37.990Z,95055.00
2018-12-08T03:53:44.769Z,95081.00
2018-12-08T03:56:13.914Z,95053.00
2018-12-08T03:58:43.402Z,95081.00
2018-12-08T04:01:13.509Z,95077.00
2018-12-08T04:03:43.471Z,95092.00
2018-12-08T04:06:13.701Z,95078.00
2018-12-08T04:08:43.577Z,95089.00
2018-12-08T04:11:16.079Z,95093.00
2018-12-08T04:13:45.336Z,95106.00
2018-12-08T04:16:14.456Z,95109.00
2018-12-08T04:18:43.823Z,95111.00
2018-12-08T04:21:13.869Z,95121.00
2018-12-08T04:23:43.856Z,95124.00
2018-12-08T04:26:13.960Z,95107.00
2018-12-08T04:28:43.847Z,95118.00
2018-12-08T04:31:14.123Z,95123.00
2018-12-08T04:33:44.106Z,95118.00
2018-12-08T04:36:14.088Z,95117.00
2018-12-08T04:38:44.179Z,95120.00
2018-12-08T04:41:14.144Z,95107.00
2018-12-08T04:43:44.229Z,95110.00
2018-12-08T04:48:57.694Z,95126.00
2018-12-08T04:51:26.819Z,95118.00
2018-12-08T04:53:55.955Z,95121.00
2018-12-08T04:56:25.187Z,95124.00
2018-12-08T05:01:32.663Z,95128.00
2018-12-08T05:04:01.836Z,95132.00
2018-12-08T05:06:31.070Z,95112.00
2018-12-08T05:09:00.187Z,95108.00
2018-12-08T05:11:29.325Z,95111.00
2018-12-08T05:13:58.505Z,95122.00
2018-12-08T05:16:27.612Z,95122.00
2018-12-08T05:18:56.835Z,95121.00
2018-12-08T05:21:26.033Z,95126.00
2018-12-08T05:23:55.084Z,95156.00
2018-12-08T05:26:24.152Z,95121.00
2018-12-08T05:28:53.308Z,95124.00
2018-12-08T05:31:22.432Z,95147.00
2018-12-08T05:33:52.277Z,95137.00
2018-12-08T05:36:21.513Z,95135.00
2018-12-08T05:38:50.576Z,95138.00
2018-12-08T05:41:19.874Z,95145.00
2018-12-08T05:43:48.930Z,95151.00
2018-12-08T05:46:18.049Z,95144.00
2018-12-08T05:51:25.549Z,95148.00
2018-12-08T05:53:54.753Z,95136.00
2018-12-08T05:59:03.091Z,95145.00
2018-12-08T06:01:32.387Z,95139.00
2018-12-08T06:04:01.511Z,95136.00
2018-12-08T06:06:30.658Z,95134.00
2018-12-08T06:08:59.766Z,95124.00
2018-12-08T06:11:28.911Z,95121.00
2018-12-08T06:13:58.081Z,95105.00
2018-12-08T06:16:27.205Z,95131.00
2018-12-08T06:18:56.541Z,95136.00
2018-12-08T06:21:39.249Z,95130.00
2018-12-08T06:24:08.888Z,95132.00
2018-12-08T06:28:07.276Z,95126.00
2018-12-08T06:30:36.431Z,95130.00
2018-12-08T06:33:05.684Z,95148.00
2018-12-08T06:35:34.924Z,95123.00
2018-12-08T06:38:04.208Z,95131.00
2018-12-08T06:43:11.999Z,95136.00
2018-12-08T06:45:41.131Z,95131.00
2018-12-08T06:50:49.293Z,95132.00
2018-12-08T06:53:18.679Z,95125.00
2018-12-08T06:55:47.753Z,95124.00
2018-12-08T07:00:57.419Z,95106.00
2018-12-08T07:06:11.224Z,95123.00
2018-12-08T07:08:40.396Z,95118.00
2018-12-08T07:11:09.457Z,95121.00
2018-12-08T07:13:38.605Z,95129.00
2018-12-08T07:16:07.730Z,95119.00
2018-12-08T07:18:36.828Z,95121.00
2018-12-08T07:21:05.968Z,95143.00
2018-12-08T07:23:35.136Z,95137.00
2018-12-08T07:26:04.164Z,95131.00
2018-12-08T07:28:33.432Z,95126.00
2018-12-08T07:31:02.581Z,95135.00
2018-12-08T07:33:31.812Z,95143.00
2018-12-08T07:36:01.107Z,95139.00
2018-12-08T07:38:30.353Z,95128.00
2018-12-08T07:40:59.557Z,95143.00
2018-12-08T07:43:28.744Z,95161.00
2018-12-08T07:45:57.893Z,95142.00
2018-12-08T07:48:27.115Z,95155.00
2018-12-08T07:53:33.986Z,95127.00
2018-12-08T07:56:03.227Z,95143.00
2018-12-08T07:58:32.400Z,95124.00
2018-12-08T08:01:01.573Z,95135.00
2018-12-08T08:03:30.827Z,95131.00
2018-12-08T08:05:59.960Z,95156.00
2018-12-08T08:08:29.051Z,95154.00
2018-12-08T08:10:58.246Z,95143.00
2018-12-08T08:13:27.456Z,95148.00
2018-12-08T08:15:56.715Z,95145.00
2018-12-08T08:18:25.961Z,95144.00
2018-12-08T08:20:56.574Z,95142.00
2018-12-08T08:23:25.746Z,95141.00
2018-12-08T08:25:55.020Z,95150.00
2018-12-08T08:28:24.221Z,95147.00
2018-12-08T08:30:53.325Z,95139.00
2018-12-08T08:33:22.463Z,95144.00
2018-12-08T08:35:51.700Z,95137.00
2018-12-08T08:38:20.765Z,95135.00
2018-12-08T08:40:51.729Z,95134.00
2018-12-08T08:43:20.964Z,95129.00
2018-12-08T08:45:50.187Z,95130.00
2018-12-08T08:48:19.343Z,95127.00
2018-12-08T08:50:48.352Z,95130.00
2018-12-08T08:53:17.520Z,95128.00
2018-12-08T08:55:47.127Z,95130.00
2018-12-08T09:00:54.799Z,95112.00
2018-12-08T09:03:23.992Z,95115.00
2018-12-08T09:08:32.303Z,95110.00
2018-12-08T09:13:40.086Z,95116.00
2018-12-08T09:16:09.257Z,95096.00
2018-12-08T09:18:38.381Z,95106.00
2018-12-08T09:21:07.483Z,95132.00
2018-12-08T09:23:36.588Z,95099.00
2018-12-08T09:28:44.943Z,95093.00
2018-12-08T09:31:14.072Z,95101.00
2018-12-08T09:33:43.203Z,95113.00
2018-12-08T09:36:12.379Z,95093.00
2018-12-08T09:38:41.500Z,95089.00
2018-12-08T09:41:10.617Z,95073.00
2018-12-08T09:43:39.761Z,95094.00
2018-12-08T09:46:08.944Z,95072.00
2018-12-08T09:48:38.053Z,95084.00
2018-12-08T09:51:07.308Z,95079.00
2018-12-08T09:56:15.680Z,95078.00
2018-12-08T09:58:44.756Z,95083.00
2018-12-08T10:01:14.076Z,95089.00
2018-12-08T10:03:43.240Z,95064.00
2018-12-08T10:06:12.308Z,95087.00
2018-12-08T10:08:41.563Z,95087.00
2018-12-08T10:11:10.900Z,95077.00
2018-12-08T10:13:39.976Z,95083.00
2018-12-08T10:18:47.889Z,95093.00
2018-12-08T10:23:57.268Z,95085.00
2018-12-08T10:26:26.494Z,95061.00
2018-12-08T10:28:55.604Z,95067.00
2018-12-08T10:31:24.723Z,95060.00
2018-12-08T10:36:33.289Z,95058.00
2018-12-08T10:41:41.000Z,95045.00
2018-12-08T10:44:10.164Z,95031.00
2018-12-08T10:46:40.869Z,95039.00
2018-12-08T10:49:09.961Z,95040.00
2018-12-08T10:51:39.096Z,95025.00
2018-12-08T10:54:08.164Z,95036.00
2018-12-08T10:56:37.347Z,95037.00
2018-12-08T10:59:07.419Z,95023.00
2018-12-08T11:01:41.856Z,95026.00
2018-12-08T11:06:50.141Z,95021.00
2018-12-08T11:09:19.380Z,95014.00
2018-12-08T11:11:50.330Z,95024.00
2018-12-08T11:16:58.055Z,95021.00
2018-12-08T11:19:27.143Z,95019.00
2018-12-08T11:21:56.324Z,95008.00
2018-12-08T11:24:25.444Z,95003.00
2018-12-08T11:26:54.652Z,95027.00
2018-12-08T11:29:23.716Z,94979.00
2018-12-08T11:31:53.188Z,95008.00
2018-12-08T11:37:00.920Z,94992.00
2018-12-08T11:39:29.935Z,95004.00
2018-12-08T11:41:59.632Z,94989.00
2018-12-08T11:44:29.192Z,95000.00
2018-12-08T11:46:58.543Z,94977.00
2018-12-08T11:49:28.998Z,94988.00
2018-12-08T11:54:36.956Z,94955.00
2018-12-08T11:57:06.173Z,94958.00
2018-12-08T11:59:35.404Z,94955.00
2018-12-08T12:02:04.704Z,94977.00
2018-12-08T12:04:33.895Z,94954.00
2018-12-08T12:07:03.148Z,94987.00
2018-12-08T12:09:32.328Z,94961.00
2018-12-08T12:12:01.550Z,94965.00
2018-12-08T12:14:49.521Z,94973.00
2018-12-08T12:17:19.741Z,94963.00
2018-12-08T12:19:49.981Z,94971.00
2018-12-08T12:22:20.212Z,94981.00
2018-12-08T12:24:50.031Z,94966.00
2018-12-08T12:27:20.332Z,94972.00
2018-12-08T12:29:50.233Z,94962.00
2018-12-08T12:32:20.137Z,94957.00
2018-12-08T12:34:50.279Z,94954.00
2018-12-08T12:37:20.211Z,94975.00
2018-12-08T12:39:50.369Z,94982.00
2018-12-08T12:42:20.232Z,94962.00
2018-12-08T12:44:50.290Z,94950.00
2018-12-08T12:47:20.411Z,94948.00
2018-12-08T12:49:50.381Z,94954.00
2018-12-08T12:54:59.067Z,94966.00
2018-12-08T12:57:28.255Z,94961.00
2018-12-08T12:59:57.556Z,94951.00
2018-12-08T13:02:26.689Z,94941.00
2018-12-08T13:04:55.901Z,94952.00
2018-12-08T13:07:25.919Z,94950.00
2018-12-08T13:09:55.180Z,94936.00
2018-12-08T13:12:24.508Z,94939.00
2018-12-08T13:14:54.599Z,94946.00
2018-12-08T13:17:23.806Z,94921.00
2018-12-08T13:19:52.889Z,94914.00
2018-12-08T13:22:22.007Z,94923.00
2018-12-08T13:24:51.211Z,94927.00
2018-12-08T13:27:20.764Z,94927.00
2018-12-08T13:29:50.742Z,94939.00
2018-12-08T13:32:20.861Z,94906.00
2018-12-08T13:34:51.392Z,94934.00
2018-12-08T13:37:20.913Z,94916.00
2018-12-08T13:39:50.838Z,94926.00
2018-12-08T13:42:20.922Z,94918.00
2018-12-08T13:45:14.411Z,94920.00
2018-12-08T13:47:44.136Z,94913.00
2018-12-08T13:52:52.221Z,94916.00
2018-12-08T13:55:21.517Z,94934.00
2018-12-08T13:57:51.148Z,94942.00
2018-12-08T14:00:21.092Z,94891.00
2018-12-08T14:02:52.305Z,94932.00
2018-12-08T14:05:21.430Z,94920.00
2018-12-08T14:07:51.253Z,94958.00
2018-12-08T14:10:22.522Z,94928.00
2018-12-08T14:12:51.793Z,94909.00
2018-12-08T14:15:21.459Z,94919.00
2018-12-08T14:17:51.261Z,94889.00
2018-12-08T14:20:32.741Z,94940.00
2018-12-08T14:23:01.780Z,94947.00
2018-12-08T14:25:31.091Z,94922.00
2018-12-08T14:28:00.246Z,94930.00
2018-12-08T14:30:29.636Z,94947.00
2018-12-08T14:32:58.787Z,94949.00
2018-12-08T14:35:28.021Z,94927.00
2018-12-08T14:37:57.201Z,94912.00
2018-12-08T14:40:26.396Z,94924.00
2018-12-08T14:42:55.637Z,94933.00
2018-12-08T14:45:24.981Z,94923.00
2018-12-08T14:47:54.064Z,94927.00
2018-12-08T14:50:23.164Z,94960.00
2018-12-08T14:52:52.314Z,94948.00
2018-12-08T14:58:05.992Z,94960.00
2018-12-08T15:00:35.193Z,94975.00
2018-12-08T15:03:04.377Z,94961.00
2018-12-08T15:05:33.427Z,94971.00
2018-12-08T15:10:41.684Z,94999.00
2018-12-08T15:13:11.916Z,94964.00
2018-12-08T15:15:41.147Z,94974.00
2018-12-08T15:20:49.522Z,94965.00
2018-12-08T15:23:18.720Z,94959.00
2018-12-08T15:28:27.132Z,94956.00
2018-12-08T15:30:56.269Z,94955.00
2018-12-08T15:36:04.720Z,94970.00
2018-12-08T15:38:34.031Z,94957.00
2018-12-08T15:41:03.301Z,94958.00
2018-12-08T15:43:33.165Z,94971.00
2018-12-08T15:46:02.520Z,94949.00
2018-12-08T15:51:09.854Z,94959.00
2018-12-08T15:53:38.984Z,94951.00
2018-12-08T15:56:08.294Z,94945.00
2018-12-08T15:58:37.346Z,94918.00
2018-12-08T16:01:06.536Z,94922.00
2018-12-08T16:03:35.671Z,94937.00
2018-12-08T16:06:04.811Z,94933.00
2018-12-08T16:08:35.434Z,94937.00
2018-12-08T16:11:04.538Z,94902.00
2018-12-08T16:13:33.614Z,94933.00
2018-12-08T16:16:03.000Z,94920.00
2018-12-08T16:18:32.240Z,94928.00
2018-12-08T16:21:03.944Z,94899.00
2018-12-08T16:23:33.268Z,94901.00
2018-12-08T16:26:02.476Z,94880.00
2018-12-08T16:28:31.776Z,94909.00
2018-12-08T16:31:01.016Z,94928.00
2018-12-08T16:33:30.212Z,94926.00
2018-12-08T16:35:59.434Z,94930.00
2018-12-08T16:41:07.772Z,94932.00
2018-12-08T16:43:36.858Z,94942.00
2018-12-08T16:46:06.067Z,94924.00
2018-12-08T16:48:35.120Z,94945.00
2018-12-08T16:53:42.443Z,94910.00
2018-12-08T16:56:11.480Z,94925.00
2018-12-08T16:58:40.547Z,94952.00
2018-12-08T17:01:09.786Z,94917.00
2018-12-08T17:03:38.963Z,94918.00
2018-12-08T17:06:08.087Z,94924.00
2018-12-08T17:08:37.188Z,94905.00
2018-12-08T17:11:06.312Z,94892.00
2018-12-08T17:13:35.582Z,94919.00
2018-12-08T17:16:04.780Z,94917.00
2018-12-08T17:18:34.963Z,94906.00
2018-12-08T17:21:04.161Z,94907.00
2018-12-08T17:26:12.476Z,94903.00
2018-12-08T17:28:41.681Z,94894.00
2018-12-08T17:31:10.892Z,94890.00
2018-12-08T17:33:40.100Z,94895.00
2018-12-08T17:36:09.187Z,94909.00
2018-12-08T17:38:38.319Z,94895.00
2018-12-08T17:41:07.569Z,94899.00
2018-12-08T17:43:36.759Z,94876.00
2018-12-08T17:46:05.896Z,94873.00
2018-12-08T17:51:13.314Z,94868.00
2018-12-08T17:53:42.449Z,94868.00
2018-12-08T17:56:11.608Z,94870.00
2018-12-08T17:58:40.755Z,94882.00
2018-12-08T18:01:09.996Z,94873.00
2018-12-08T18:03:39.152Z,94863.00
2018-12-08T18:06:08.445Z,94862.00
2018-12-08T18:08:37.688Z,94866.00
2018-12-08T18:11:07.333Z,94854.00
2018-12-08T18:13:36.568Z,94867.00
2018-12-08T18:18:44.931Z,94860.00
2018-12-08T18:21:15.363Z,94838.00
2018-12-08T18:23:44.564Z,94845.00
2018-12-08T18:26:13.922Z,94847.00
2018-12-08T18:28:43.067Z,94854.00
2018-12-08T18:31:12.250Z,94827.00
2018-12-08T18:33:41.376Z,94844.00
2018-12-08T18:38:49.232Z,94846.00
2018-12-08T18:41:18.452Z,94855.00
2018-12-08T18:43:47.677Z,94843.00
2018-12-08T18:46:17.932Z,94861.00
2018-12-08T18:48:47.167Z,94829.00
2018-12-08T18:51:16.416Z,94840.00
2018-12-08T18:53:45.539Z,94830.00
2018-12-08T18:56:14.622Z,94848.00
2018-12-08T18:58:43.804Z,94830.00
2018-12-08T19:01:13.086Z,94838.00
2018-12-08T19:03:42.228Z,94836.00
2018-12-08T19:06:11.660Z,94819.00
2018-12-08T19:11:19.090Z,94826.00
2018-12-08T19:13:48.200Z,94816.00
2018-12-08T19:19:02.087Z,94805.00
2018-12-08T19:24:10.457Z,94811.00
2018-12-08T19:26:39.644Z,94790.00
2018-12-08T19:29:08.779Z,94814.00
2018-12-08T19:31:37.979Z,94804.00
2018-12-08T19:34:07.099Z,94800.00
2018-12-08T19:36:36.208Z,94797.00
2018-12-08T19:39:06.819Z,94803.00
2018-12-08T19:44:15.236Z,94796.00
2018-12-08T19:49:23.951Z,94770.00
2018-12-08T19:51:53.111Z,94771.00
2018-12-08T19:54:23.192Z,94765.00
2018-12-08T19:56:52.292Z,94757.00
2018-12-08T20:02:00.656Z,94724.00
2018-12-08T20:04:29.802Z,94731.00
2018-12-08T20:06:59.001Z,94730.00
2018-12-08T20:09:28.114Z,94736.00
2018-12-08T20:11:57.311Z,94729.00
2018-12-08T20:14:26.492Z,94724.00
2018-12-08T20:16:55.808Z,94720.00
2018-12-08T20:19:27.440Z,94737.00
2018-12-08T20:24:36.114Z,94741.00
2018-12-08T20:27:05.396Z,94710.00
2018-12-08T20:29:34.556Z,94709.00
2018-12-08T20:32:03.833Z,94714.00
2018-12-08T20:34:32.884Z,94696.00
2018-12-08T20:37:02.028Z,94688.00
2018-12-08T20:39:31.104Z,94688.00
2018-12-08T20:42:00.231Z,94664.00
2018-12-08T20:44:29.513Z,94679.00
2018-12-08T20:46:58.574Z,94678.00
2018-12-08T20:52:08.932Z,94641.00
2018-12-08T20:54:38.069Z,94640.00
2018-12-08T20:57:07.252Z,94639.00
2018-12-08T20:59:36.387Z,94638.00
2018-12-08T21:02:05.768Z,94659.00
2018-12-08T21:04:34.879Z,94645.00
2018-12-08T21:09:42.031Z,94632.00
2018-12-08T21:12:11.238Z,94643.00
2018-12-08T21:14:40.673Z,94627.00
2018-12-08T21:17:09.785Z,94621.00
2018-12-08T21:19:38.920Z,94597.00
2018-12-08T21:22:08.056Z,94598.00
2018-12-08T21:24:37.113Z,94615.00
2018-12-08T21:27:06.325Z,94608.00
2018-12-08T21:29:35.448Z,94606.00
2018-12-08T21:32:06.310Z,94583.00
2018-12-08T21:34:35.409Z,94592.00
2018-12-08T21:37:04.515Z,94592.00
2018-12-08T21:39:33.580Z,94581.00
2018-12-08T21:42:02.851Z,94561.00
2018-12-08T21:44:32.633Z,94564.00
2018-12-08T21:47:01.767Z,94555.00
2018-12-08T21:49:30.856Z,94548.00
2018-12-08T21:52:00.079Z,94558.00
2018-12-08T21:54:29.195Z,94538.00
2018-12-08T21:56:58.303Z,94513.00
2018-12-08T22:02:05.796Z,94517.00
2018-12-08T22:04:35.060Z,94508.00
2018-12-08T22:09:43.798Z,94527.00
2018-12-08T22:12:13.005Z,94519.00
2018-12-08T22:17:27.881Z,94508.00
2018-12-08T22:19:57.085Z,94523.00
2018-12-08T22:22:26.708Z,94505.00
2018-12-08T22:24:56.779Z,94497.00
2018-12-08T22:27:27.613Z,94476.00
2018-12-08T22:29:56.637Z,94491.00
2018-12-08T22:32:26.764Z,94499.00
2018-12-08T22:37:35.956Z,94455.00
2018-12-08T22:40:06.069Z,94466.00
2018-12-08T22:42:35.316Z,94448.00
2018-12-08T22:45:05.698Z,94446.00
2018-12-08T22:47:35.063Z,94419.00
2018-12-08T22:52:43.017Z,94410.00
2018-12-08T22:55:12.396Z,94338.00
2018-12-08T22:57:41.564Z,94412.00
2018-12-08T23:00:48.628Z,94407.00
2018-12-08T23:03:17.967Z,94417.00
2018-12-08T23:05:47.246Z,94408.00
2018-12-08T23:08:16.516Z,94401.00
2018-12-08T23:10:45.636Z,94394.00
2018-12-08T23:13:14.727Z,94385.00
2018-12-08T23:15:43.960Z,94390.00
2018-12-08T23:18:13.236Z,94381.00
2018-12-08T23:20:42.453Z,94376.00
2018-12-08T23:23:11.643Z,94354.00
2018-12-08T23:25:40.943Z,94351.00
2018-12-08T23:28:10.213Z,94345.00
2018-12-08T23:30:39.444Z,94343.00
2018-12-08T23:33:08.592Z,94326.00
2018-12-08T23:35:37.820Z,94333.00
2018-12-08T23:38:06.976Z,94321.00
2018-12-08T23:40:36.191Z,94333.00
2018-12-08T23:43:05.334Z,94303.00
2018-12-08T23:45:34.483Z,94311.00
2018-12-08T23:48:03.720Z,94326.00
2018-12-08T23:50:32.898Z,94326.00
2018-12-08T23:53:02.078Z,94323.00
2018-12-08T23:55:31.168Z,94295.00
